createdAt,value
2023-03-05T00:00:02.056Z,5.63
2023-03-05T00:02:29.881Z,7.80
2023-03-05T00:04:57.644Z,10.07
2023-03-05T00:07:25.417Z,7.25
2023-03-05T00:09:53.130Z,11.07
2023-03-05T00:12:20.931Z,13.48
2023-03-05T00:14:50.031Z,20.90
2023-03-05T00:17:17.823Z,9.55
2023-03-05T00:19:45.581Z,13.30
2023-03-05T00:22:13.339Z,8.40
2023-03-05T00:24:41.058Z,10.35
2023-03-05T00:27:08.847Z,8.80
2023-03-05T00:29:36.623Z,11.55
2023-03-05T00:32:05.982Z,14.65
2023-03-05T00:34:33.770Z,13.88
2023-03-05T00:37:01.673Z,9.23
2023-03-05T00:39:29.504Z,6.45
2023-03-05T00:41:58.035Z,9.13
2023-03-05T00:44:25.836Z,11.00
2023-03-05T00:46:53.591Z,10.82
2023-03-05T00:49:22.732Z,8.82
2023-03-05T00:51:50.460Z,10.90
2023-03-05T00:54:18.315Z,11.10
2023-03-05T00:56:46.461Z,11.57
2023-03-05T00:59:14.215Z,12.20
2023-03-05T01:01:41.973Z,13.77
2023-03-05T01:04:10.188Z,16.27
2023-03-05T01:06:42.712Z,9.77
2023-03-05T01:09:10.466Z,11.90
2023-03-05T01:11:38.587Z,15.35
2023-03-05T01:14:06.332Z,12.65
2023-03-05T01:16:34.145Z,8.25
2023-03-05T01:19:01.884Z,10.63
2023-03-05T01:21:29.696Z,11.23
2023-03-05T01:23:58.873Z,12.23
2023-03-05T01:26:26.768Z,13.63
2023-03-05T01:28:55.065Z,8.63
2023-03-05T01:31:23.251Z,10.32
2023-03-05T01:33:53.065Z,11.52
2023-03-05T01:36:21.675Z,10.25
2023-03-05T01:38:49.443Z,8.73
2023-03-05T01:41:19.907Z,8.90
2023-03-05T01:43:49.665Z,11.38
2023-03-05T01:46:32.403Z,14.23
2023-03-05T01:49:05.464Z,14.20
2023-03-05T01:51:38.030Z,8.38
2023-03-05T01:54:08.404Z,8.25
2023-03-05T01:56:39.510Z,13.98
2023-03-05T01:59:07.340Z,15.07
2023-03-05T02:01:40.648Z,13.93
2023-03-05T02:04:10.272Z,9.73
2023-03-05T02:06:39.586Z,10.65
2023-03-05T02:09:07.540Z,12.23
2023-03-05T02:11:36.990Z,12.38
2023-03-05T02:14:09.860Z,13.32
2023-03-05T02:16:39.168Z,13.18
2023-03-05T02:19:09.781Z,11.80
2023-03-05T02:21:41.505Z,14.07
2023-03-05T02:24:12.983Z,9.98
2023-03-05T02:26:42.991Z,13.00
2023-03-05T02:29:14.100Z,11.43
2023-03-05T02:31:43.111Z,17.05
2023-03-05T02:34:10.937Z,10.10
2023-03-05T02:36:40.096Z,12.65
2023-03-05T02:39:09.645Z,15.60
2023-03-05T02:41:37.618Z,13.32
2023-03-05T02:44:05.901Z,12.35
2023-03-05T02:46:33.696Z,12.02
2023-03-05T02:49:01.816Z,10.82
2023-03-05T02:51:29.631Z,16.23
2023-03-05T02:53:59.152Z,11.10
2023-03-05T02:56:28.488Z,12.23
2023-03-05T02:58:56.283Z,12.55
2023-03-05T03:01:24.246Z,11.25
2023-03-05T03:03:52.024Z,8.48
2023-03-05T03:06:19.824Z,12.73
2023-03-05T03:08:47.579Z,13.38
2023-03-05T03:11:17.589Z,9.50
2023-03-05T03:13:45.424Z,10.35
2023-03-05T03:16:15.557Z,10.20
2023-03-05T03:18:44.078Z,11.50
2023-03-05T03:21:18.718Z,9.40
2023-03-05T03:23:46.676Z,7.90
2023-03-05T03:26:15.764Z,7.55
2023-03-05T03:28:43.673Z,9.25
2023-03-05T03:31:11.579Z,10.88
2023-03-05T03:33:39.413Z,15.13
2023-03-05T03:36:07.950Z,7.72
2023-03-05T03:38:35.815Z,11.02
2023-03-05T03:41:03.687Z,9.20
2023-03-05T03:43:32.808Z,11.40
2023-03-05T03:46:00.687Z,7.63
2023-03-05T03:48:28.442Z,9.38
2023-03-05T03:50:56.158Z,8.93
2023-03-05T03:53:23.879Z,10.13
2023-03-05T03:55:51.760Z,8.25
2023-03-05T03:58:19.529Z,7.80
2023-03-05T04:00:48.665Z,7.18
2023-03-05T04:03:16.388Z,8.00
2023-03-05T04:05:44.167Z,12.00
2023-03-05T04:08:12.649Z,8.23
2023-03-05T04:10:40.539Z,9.65
2023-03-05T04:13:08.656Z,10.43
2023-03-05T04:15:36.558Z,7.45
2023-03-05T04:18:05.877Z,8.65
2023-03-05T04:20:33.693Z,7.80
2023-03-05T04:23:01.473Z,9.07
2023-03-05T04:25:29.329Z,8.60
2023-03-05T04:27:57.059Z,8.88
2023-03-05T04:30:24.750Z,6.65
2023-03-05T04:32:52.437Z,11.32
2023-03-05T04:35:21.720Z,10.98
2023-03-05T04:37:49.746Z,11.95
2023-03-05T04:40:18.154Z,8.73
2023-03-05T04:42:46.030Z,10.88
2023-03-05T04:45:13.924Z,12.77
2023-03-05T04:47:41.671Z,10.57
2023-03-05T04:50:10.846Z,7.93
2023-03-05T04:52:41.396Z,8.68
2023-03-05T04:55:10.484Z,9.38
2023-03-05T04:57:38.371Z,20.30
2023-03-05T05:00:12.492Z,8.10
2023-03-05T05:02:40.377Z,5.10
2023-03-05T05:05:08.695Z,9.50
2023-03-05T05:07:36.480Z,7.43
2023-03-05T05:10:07.759Z,7.30
2023-03-05T05:12:36.291Z,10.82
2023-03-05T05:15:04.526Z,6.50
2023-03-05T05:17:33.086Z,10.95
2023-03-05T05:20:00.872Z,9.57
2023-03-05T05:22:28.782Z,7.80
2023-03-05T05:24:56.827Z,6.47
2023-03-05T05:27:25.951Z,5.40
2023-03-05T05:29:53.759Z,6.10
2023-03-05T05:32:24.004Z,4.00
2023-03-05T05:34:55.291Z,6.18
2023-03-05T05:37:23.302Z,8.07
2023-03-05T05:39:51.258Z,10.15
2023-03-05T05:42:19.732Z,6.70
2023-03-05T05:44:49.376Z,5.82
2023-03-05T05:47:18.119Z,5.45
2023-03-05T05:49:45.996Z,11.65
2023-03-05T05:52:14.203Z,6.50
2023-03-05T05:54:41.980Z,7.85
2023-03-05T05:57:09.927Z,5.00
2023-03-05T05:59:38.237Z,8.48
2023-03-05T06:02:08.056Z,11.30
2023-03-05T06:04:36.886Z,9.55
2023-03-05T06:07:05.120Z,7.80
2023-03-05T06:09:32.928Z,7.03
2023-03-05T06:12:00.619Z,6.00
2023-03-05T06:14:28.464Z,3.40
2023-03-05T06:16:56.230Z,9.70
2023-03-05T06:19:25.337Z,4.68
2023-03-05T06:21:53.047Z,5.10
2023-03-05T06:24:20.845Z,4.57
2023-03-05T06:26:49.166Z,5.75
2023-03-05T06:29:16.965Z,7.00
2023-03-05T06:31:44.757Z,6.00
2023-03-05T06:34:13.454Z,4.00
2023-03-05T06:36:43.631Z,4.38
2023-03-05T06:39:11.799Z,5.03
2023-03-05T06:41:39.724Z,8.82
2023-03-05T06:44:07.541Z,8.30
2023-03-05T06:46:39.146Z,5.10
2023-03-05T06:49:08.570Z,8.25
2023-03-05T06:51:38.057Z,5.28
2023-03-05T06:54:09.138Z,5.38
2023-03-05T06:56:40.607Z,9.07
2023-03-05T06:59:08.959Z,7.43
2023-03-05T07:01:36.869Z,7.18
2023-03-05T07:04:05.853Z,5.57
2023-03-05T07:06:35.005Z,5.38
2023-03-05T07:09:03.894Z,4.30
2023-03-05T07:11:34.007Z,7.28
2023-03-05T07:14:02.132Z,6.28
2023-03-05T07:16:32.310Z,5.80
2023-03-05T07:19:03.130Z,7.65
2023-03-05T07:21:32.460Z,6.45
2023-03-05T07:24:02.080Z,6.20
2023-03-05T07:26:30.840Z,5.35
2023-03-05T07:29:00.177Z,9.48
2023-03-05T07:31:31.239Z,8.57
2023-03-05T07:34:00.161Z,5.30
2023-03-05T07:36:28.365Z,9.70
2023-03-05T07:38:56.212Z,8.90
2023-03-05T07:41:24.441Z,9.07
2023-03-05T07:43:54.497Z,6.18
2023-03-05T07:46:25.915Z,8.13
2023-03-05T07:48:54.696Z,7.05
2023-03-05T07:51:23.797Z,10.40
2023-03-05T07:53:53.106Z,4.65
2023-03-05T07:56:25.922Z,4.20
2023-03-05T07:58:54.186Z,6.05
2023-03-05T08:01:23.537Z,5.55
2023-03-05T08:03:51.261Z,5.93
2023-03-05T08:06:19.058Z,4.88
2023-03-05T08:08:46.807Z,5.10
2023-03-05T08:11:16.181Z,4.15
2023-03-05T08:13:44.021Z,9.77
2023-03-05T08:16:14.787Z,6.18
2023-03-05T08:18:44.912Z,5.07
2023-03-05T08:21:20.458Z,5.38
2023-03-05T08:23:48.593Z,4.50
2023-03-05T08:26:18.559Z,3.40
2023-03-05T08:28:46.534Z,4.25
2023-03-05T08:31:16.327Z,4.47
2023-03-05T08:33:45.526Z,4.45
2023-03-05T08:36:13.326Z,4.38
2023-03-05T08:38:41.903Z,6.28
2023-03-05T08:41:09.812Z,5.45
2023-03-05T08:43:38.128Z,4.45
2023-03-05T08:46:06.532Z,5.60
2023-03-05T08:48:34.815Z,4.65
2023-03-05T08:51:08.141Z,4.57
2023-03-05T08:53:35.963Z,7.70
2023-03-05T08:56:04.660Z,4.10
2023-03-05T08:58:32.593Z,4.70
2023-03-05T09:01:00.356Z,4.78
2023-03-05T09:03:28.190Z,2.67
2023-03-05T09:06:00.753Z,4.70
2023-03-05T09:08:30.069Z,4.10
2023-03-05T09:10:58.079Z,3.75
2023-03-05T09:13:25.975Z,4.43
2023-03-05T09:15:56.989Z,4.60
2023-03-05T09:18:24.839Z,4.50
2023-03-05T09:20:52.705Z,4.18
2023-03-05T09:23:20.474Z,8.52
2023-03-05T09:25:49.793Z,8.07
2023-03-05T09:28:18.160Z,4.03
2023-03-05T09:30:45.924Z,5.22
2023-03-05T09:33:13.678Z,7.13
2023-03-05T09:35:41.617Z,5.63
2023-03-05T09:38:09.500Z,5.18
2023-03-05T09:40:46.394Z,3.95
2023-03-05T09:43:26.995Z,2.78
2023-03-05T09:46:07.207Z,6.95
2023-03-05T09:48:48.685Z,4.80
2023-03-05T09:51:22.079Z,4.65
2023-03-05T09:53:54.844Z,3.17
2023-03-05T09:56:27.608Z,6.93
2023-03-05T09:59:01.713Z,2.63
2023-03-05T10:01:35.443Z,6.10
2023-03-05T10:04:11.541Z,7.47
2023-03-05T10:06:49.601Z,4.45
2023-03-05T10:09:28.714Z,6.85
2023-03-05T10:12:01.020Z,3.85
2023-03-05T10:14:32.324Z,4.43
2023-03-05T10:17:46.280Z,3.33
2023-03-05T10:20:31.578Z,3.50
2023-03-05T10:23:20.378Z,2.78
2023-03-05T10:25:57.897Z,3.35
2023-03-05T10:28:35.689Z,3.78
2023-03-05T10:31:14.316Z,3.85
2023-03-05T10:33:52.717Z,4.35
2023-03-05T10:36:35.942Z,4.63
2023-03-05T10:39:34.912Z,5.60
2023-03-05T10:42:11.728Z,5.43
2023-03-05T10:44:45.522Z,3.50
2023-03-05T10:47:22.573Z,6.30
2023-03-05T10:49:53.050Z,4.30
2023-03-05T10:52:26.533Z,2.45
2023-03-05T10:54:54.288Z,5.05
2023-03-05T10:57:23.781Z,3.28
2023-03-05T10:59:53.473Z,8.20
2023-03-05T11:02:23.998Z,5.47
2023-03-05T11:04:53.414Z,5.75
2023-03-05T11:07:34.465Z,2.78
2023-03-05T11:10:15.083Z,3.85
2023-03-05T11:12:43.229Z,3.55
2023-03-05T11:15:27.585Z,3.33
2023-03-05T11:18:17.589Z,2.97
2023-03-05T11:20:45.620Z,6.38
2023-03-05T11:23:15.275Z,8.95
2023-03-05T11:25:56.055Z,5.03
2023-03-05T11:28:32.868Z,4.30
2023-03-05T11:31:08.428Z,8.20
2023-03-05T11:33:38.965Z,4.93
2023-03-05T11:36:28.171Z,7.13
2023-03-05T11:38:59.555Z,5.38
2023-03-05T11:41:40.766Z,3.55
2023-03-05T11:44:13.817Z,4.82
2023-03-05T11:46:45.906Z,4.88
2023-03-05T11:49:19.516Z,3.45
2023-03-05T11:51:54.558Z,4.53
2023-03-05T11:54:25.775Z,3.78
2023-03-05T11:56:54.384Z,3.80
2023-03-05T11:59:27.939Z,3.53
2023-03-05T12:01:57.565Z,5.50
2023-03-05T12:04:27.201Z,4.70
2023-03-05T12:06:58.773Z,5.63
2023-03-05T12:09:34.625Z,3.72
2023-03-05T12:12:08.337Z,6.07
2023-03-05T12:14:45.122Z,4.55
2023-03-05T12:17:18.336Z,5.40
2023-03-05T12:19:55.935Z,3.78
2023-03-05T12:22:25.867Z,3.67
2023-03-05T12:24:54.039Z,3.20
2023-03-05T12:27:42.853Z,3.08
2023-03-05T12:30:54.713Z,2.42
2023-03-05T12:33:38.325Z,3.92
2023-03-05T12:36:36.385Z,4.22
2023-03-05T12:39:49.651Z,5.15
2023-03-05T12:42:46.913Z,1.70
2023-03-05T12:45:27.420Z,4.90
2023-03-05T12:48:32.608Z,2.05
2023-03-05T12:51:00.382Z,4.30
2023-03-05T12:53:30.238Z,3.00
2023-03-05T12:56:03.829Z,3.47
2023-03-05T12:58:40.166Z,4.15
2023-03-05T13:01:17.369Z,4.70
2023-03-05T13:03:48.314Z,4.60
2023-03-05T13:06:27.282Z,2.67
2023-03-05T13:09:01.520Z,2.53
2023-03-05T13:11:31.508Z,3.15
2023-03-05T13:13:59.685Z,2.45
2023-03-05T13:16:29.686Z,3.38
2023-03-05T13:19:01.154Z,3.35
2023-03-05T13:21:31.889Z,5.90
2023-03-05T13:24:03.150Z,2.10
2023-03-05T13:26:37.134Z,3.95
2023-03-05T13:29:08.269Z,3.90
2023-03-05T13:31:37.706Z,1.45
2023-03-05T13:34:15.442Z,4.05
2023-03-05T13:36:48.454Z,3.10
2023-03-05T13:39:23.585Z,3.28
2023-03-05T13:42:00.261Z,2.70
2023-03-05T13:44:29.492Z,2.90
2023-03-05T13:47:15.275Z,2.05
2023-03-05T13:49:43.962Z,3.08
2023-03-05T13:52:15.875Z,2.90
2023-03-05T13:54:45.137Z,3.05
2023-03-05T13:57:34.037Z,3.33
2023-03-05T14:00:01.847Z,1.80
2023-03-05T14:02:32.473Z,3.15
2023-03-05T14:05:01.567Z,3.45
2023-03-05T14:07:33.832Z,1.83
2023-03-05T14:10:03.802Z,2.00
2023-03-05T14:12:36.019Z,8.63
2023-03-05T14:15:22.115Z,2.95
2023-03-05T14:17:50.101Z,3.17
2023-03-05T14:20:24.361Z,4.57
2023-03-05T14:22:53.712Z,2.58
2023-03-05T14:25:34.648Z,2.88
2023-03-05T14:28:04.620Z,2.75
2023-03-05T14:30:35.184Z,4.40
2023-03-05T14:33:04.324Z,3.15
2023-03-05T14:35:32.342Z,2.00
2023-03-05T14:38:01.079Z,4.00
2023-03-05T14:40:32.115Z,2.83
2023-03-05T14:43:00.997Z,3.30
2023-03-05T14:45:30.924Z,6.28
2023-03-05T14:48:00.496Z,4.78
2023-03-05T14:50:30.681Z,4.20
2023-03-05T14:53:01.402Z,3.08
2023-03-05T14:55:32.817Z,2.67
2023-03-05T14:58:04.460Z,4.63
2023-03-05T15:00:32.708Z,3.08
2023-03-05T15:03:00.593Z,3.00
2023-03-05T15:05:28.709Z,2.42
2023-03-05T15:07:56.651Z,3.55
2023-03-05T15:10:26.574Z,2.05
2023-03-05T15:12:55.681Z,2.88
2023-03-05T15:15:23.918Z,2.20
2023-03-05T15:17:54.943Z,1.63
2023-03-05T15:20:24.960Z,3.60
2023-03-05T15:22:53.326Z,3.25
2023-03-05T15:25:22.150Z,6.15
2023-03-05T15:27:50.845Z,4.55
2023-03-05T15:30:23.812Z,2.05
2023-03-05T15:32:52.445Z,3.38
2023-03-05T15:35:20.233Z,1.42
2023-03-05T15:37:48.192Z,3.20
2023-03-05T15:40:16.553Z,2.83
2023-03-05T15:42:44.318Z,3.15
2023-03-05T15:45:12.292Z,2.88
2023-03-05T15:47:41.387Z,2.67
2023-03-05T15:50:10.671Z,2.35
2023-03-05T15:52:38.418Z,1.92
2023-03-05T15:55:07.002Z,4.53
2023-03-05T15:57:38.152Z,5.63
2023-03-05T16:00:07.583Z,5.38
2023-03-05T16:02:38.137Z,2.33
2023-03-05T16:05:08.688Z,3.88
2023-03-05T16:07:39.919Z,5.07
2023-03-05T16:10:11.999Z,3.83
2023-03-05T16:12:42.923Z,1.02
2023-03-05T16:15:12.802Z,3.17
2023-03-05T16:17:44.033Z,3.38
2023-03-05T16:20:14.848Z,2.33
2023-03-05T16:22:42.654Z,4.60
2023-03-05T16:25:10.824Z,3.72
2023-03-05T16:27:38.647Z,2.92
2023-03-05T16:30:07.849Z,4.03
2023-03-05T16:32:35.754Z,4.70
2023-03-05T16:35:03.676Z,2.22
2023-03-05T16:37:32.820Z,3.15
2023-03-05T16:40:00.682Z,3.60
2023-03-05T16:42:28.390Z,5.28
2023-03-05T16:44:56.828Z,4.03
2023-03-05T16:47:24.590Z,3.08
2023-03-05T16:49:52.676Z,3.67
2023-03-05T16:52:21.066Z,3.92
2023-03-05T16:54:50.445Z,2.65
2023-03-05T16:57:18.311Z,4.25
2023-03-05T16:59:46.117Z,3.30
2023-03-05T17:02:15.250Z,1.98
2023-03-05T17:04:43.496Z,2.15
2023-03-05T17:07:11.856Z,5.60
2023-03-05T17:09:39.697Z,4.47
2023-03-05T17:12:09.200Z,4.40
2023-03-05T17:14:37.061Z,3.45
2023-03-05T17:17:04.870Z,2.58
2023-03-05T17:19:32.829Z,5.22
2023-03-05T17:22:00.597Z,3.90
2023-03-05T17:24:28.769Z,5.00
2023-03-05T17:26:56.507Z,4.07
2023-03-05T17:29:25.623Z,2.55
2023-03-05T17:31:53.734Z,4.22
2023-03-05T17:34:33.290Z,4.15
2023-03-05T17:37:01.846Z,3.40
2023-03-05T17:39:29.868Z,4.05
2023-03-05T17:41:57.658Z,6.38
2023-03-05T17:44:26.803Z,3.45
2023-03-05T17:46:54.582Z,2.33
2023-03-05T17:49:22.333Z,3.35
2023-03-05T17:51:50.109Z,3.28
2023-03-05T17:54:17.861Z,2.78
2023-03-05T17:56:48.044Z,5.53
2023-03-05T17:59:16.514Z,4.10
2023-03-05T18:01:45.662Z,6.10
2023-03-05T18:04:15.195Z,3.22
2023-03-05T18:06:42.997Z,5.13
2023-03-05T18:09:11.018Z,4.15
2023-03-05T18:11:39.257Z,5.38
2023-03-05T18:14:07.015Z,2.30
2023-03-05T18:16:36.059Z,6.20
2023-03-05T18:19:05.235Z,5.45
2023-03-05T18:21:32.976Z,5.13
2023-03-05T18:24:00.729Z,4.63
2023-03-05T18:26:28.497Z,4.22
2023-03-05T18:28:56.252Z,3.03
2023-03-05T18:31:23.996Z,6.18
2023-03-05T18:33:51.776Z,6.78
2023-03-05T18:36:20.866Z,2.70
2023-03-05T18:38:48.739Z,3.95
2023-03-05T18:41:21.239Z,5.18
2023-03-05T18:43:50.403Z,4.95
2023-03-05T18:46:18.706Z,6.15
2023-03-05T18:48:47.944Z,3.92
2023-03-05T18:51:17.587Z,4.07
2023-03-05T18:53:46.979Z,7.63
2023-03-05T18:56:15.033Z,4.07
2023-03-05T18:58:42.815Z,2.97
2023-03-05T19:01:11.189Z,4.35
2023-03-05T19:03:38.975Z,4.22
2023-03-05T19:06:07.788Z,5.05
2023-03-05T19:08:35.747Z,4.90
2023-03-05T19:11:15.549Z,6.43
2023-03-05T19:13:44.250Z,6.35
2023-03-05T19:16:14.339Z,5.15
2023-03-05T19:18:53.919Z,4.85
2023-03-05T19:21:21.699Z,5.60
2023-03-05T19:23:49.424Z,4.65
2023-03-05T19:26:18.571Z,4.25
2023-03-05T19:28:46.371Z,5.43
2023-03-05T19:31:14.765Z,5.35
2023-03-05T19:33:42.856Z,6.57
2023-03-05T19:36:11.781Z,3.38
2023-03-05T19:38:40.051Z,6.57
2023-03-05T19:41:10.843Z,5.15
2023-03-05T19:43:40.214Z,5.32
2023-03-05T19:46:09.705Z,4.95
2023-03-05T19:48:39.236Z,6.80
2023-03-05T19:51:10.144Z,7.22
2023-03-05T19:53:38.305Z,4.57
2023-03-05T19:56:07.321Z,5.32
2023-03-05T19:58:35.870Z,4.60
2023-03-05T20:01:15.375Z,3.92
2023-03-05T20:03:45.031Z,7.00
2023-03-05T20:06:12.925Z,5.05
2023-03-05T20:08:41.084Z,4.78
2023-03-05T20:11:11.614Z,5.53
2023-03-05T20:13:40.394Z,4.03
2023-03-05T20:16:15.726Z,4.65
2023-03-05T20:18:43.724Z,6.18
2023-03-05T20:21:11.976Z,4.20
2023-03-05T20:23:40.031Z,5.55
2023-03-05T20:26:07.889Z,3.92
2023-03-05T20:28:35.758Z,4.35
2023-03-05T20:31:03.575Z,4.07
2023-03-05T20:33:32.809Z,4.30
2023-03-05T20:36:01.310Z,6.97
2023-03-05T20:38:30.620Z,6.22
2023-03-05T20:40:59.942Z,5.47
2023-03-05T20:43:29.687Z,6.95
2023-03-05T20:45:58.341Z,6.00
2023-03-05T20:48:28.089Z,4.30
2023-03-05T20:50:58.052Z,7.10
2023-03-05T20:53:25.862Z,4.28
2023-03-05T20:55:54.502Z,3.53
2023-03-05T20:58:22.217Z,5.43
2023-03-05T21:00:50.009Z,4.45
2023-03-05T21:03:17.772Z,4.30
2023-03-05T21:05:46.800Z,5.05
2023-03-05T21:08:15.922Z,7.80
2023-03-05T21:10:43.642Z,4.22
2023-03-05T21:13:11.380Z,4.82
2023-03-05T21:15:41.688Z,5.70
2023-03-05T21:18:09.440Z,4.95
2023-03-05T21:20:37.225Z,5.43
2023-03-05T21:23:04.975Z,5.72
2023-03-05T21:25:34.813Z,5.70
2023-03-05T21:28:06.033Z,7.18
2023-03-05T21:30:36.289Z,5.07
2023-03-05T21:33:06.847Z,5.57
2023-03-05T21:35:35.837Z,4.78
2023-03-05T21:38:05.830Z,6.72
2023-03-05T21:40:36.312Z,5.68
2023-03-05T21:43:04.284Z,4.85
2023-03-05T21:45:32.348Z,5.00
2023-03-05T21:48:00.128Z,6.30
2023-03-05T21:50:28.005Z,7.28
2023-03-05T21:52:56.031Z,6.00
2023-03-05T21:55:32.214Z,6.40
2023-03-05T21:58:01.798Z,4.75
2023-03-05T22:00:29.841Z,3.60
2023-03-05T22:02:57.548Z,4.35
2023-03-05T22:05:25.332Z,7.40
2023-03-05T22:07:53.039Z,6.90
2023-03-05T22:10:21.802Z,9.73
2023-03-05T22:12:56.726Z,5.10
2023-03-05T22:15:27.725Z,8.75
2023-03-05T22:17:55.467Z,6.20
2023-03-05T22:20:23.329Z,6.15
2023-03-05T22:22:51.182Z,6.20
2023-03-05T22:25:19.374Z,7.35
2023-03-05T22:27:47.109Z,5.65
2023-03-05T22:30:15.311Z,6.75
2023-03-05T22:32:44.432Z,5.50
2023-03-05T22:35:14.546Z,5.47
2023-03-05T22:37:42.522Z,5.50
2023-03-05T22:40:14.638Z,5.13
2023-03-05T22:42:42.436Z,4.70
2023-03-05T22:45:11.270Z,4.57
2023-03-05T22:47:39.080Z,5.57
2023-03-05T22:50:09.398Z,5.68
2023-03-05T22:52:37.138Z,8.27
2023-03-05T22:55:05.410Z,6.20
2023-03-05T22:57:34.205Z,5.82
2023-03-05T23:00:01.961Z,9.02
2023-03-05T23:02:29.859Z,10.75
2023-03-05T23:05:00.396Z,5.32
2023-03-05T23:07:32.460Z,9.38
2023-03-05T23:10:02.342Z,7.57
2023-03-05T23:12:33.104Z,7.80
2023-03-05T23:15:01.768Z,9.35
2023-03-05T23:17:29.662Z,5.38
2023-03-05T23:19:57.428Z,8.63
2023-03-05T23:22:25.251Z,5.22
2023-03-05T23:24:54.419Z,7.82
2023-03-05T23:27:22.269Z,6.25
2023-03-05T23:30:04.506Z,7.88
2023-03-05T23:32:32.275Z,5.95
2023-03-05T23:35:00.118Z,5.85
2023-03-05T23:37:27.887Z,6.13
2023-03-05T23:39:57.143Z,6.70
2023-03-05T23:42:24.853Z,6.88
2023-03-05T23:44:54.171Z,8.57
2023-03-05T23:47:21.980Z,7.82
2023-03-05T23:49:49.795Z,7.80
2023-03-05T23:52:17.521Z,8.13
2023-03-05T23:54:45.467Z,11.70
2023-03-05T23:57:14.579Z,5.82
2023-03-05T23:59:42.287Z,5.30
